Time;durP1;ratioP1;P1;durP2;ratioP2;P2;SDS_P1;SDS_P2;PMS_P1;PMS_P2;Temp;Humidity;BMP_temperature;BMP_pressure;BME280_temperature;BME280_humidity;BME280_pressure;Samples;Min_cycle;Max_cycle;Signal;HPM_P1;HPM_P2
2022/11/10 00:00:22;;;;;;;2.77;0.87;;;8.60;99.90;;;;;;4228023;28;20668;-69
2022/11/10 00:02:23;;;;;;;2.17;1.00;;;8.60;99.90;;;;;;4229672;28;20698;-69
2022/11/10 00:04:24;;;;;;;3.70;1.07;;;8.60;99.90;;;;;;4231282;28;20189;-69
2022/11/10 00:06:24;;;;;;;1.10;1.00;;;8.40;99.90;;;;;;4231347;28;20186;-69
2022/11/10 00:08:25;;;;;;;3.80;1.03;;;8.50;99.90;;;;;;4231144;28;20663;-70
2022/11/10 00:10:26;;;;;;;2.20;1.00;;;8.60;99.90;;;;;;4230955;28;20216;-70
2022/11/10 00:12:27;;;;;;;4.03;1.17;;;8.60;99.90;;;;;;4231103;28;20193;-70
2022/11/10 00:17:04;;;;;;;3.27;1.00;;;8.80;99.90;;;;;;4231198;28;20227;-69
2022/11/10 00:19:05;;;;;;;3.23;1.10;;;8.70;99.90;;;;;;4231189;28;20571;-69
2022/11/10 00:21:09;;;;;;;1.90;1.13;;;8.80;99.90;;;;;;4230783;28;20174;-69
2022/11/10 00:23:09;;;;;;;2.37;1.00;;;8.90;99.90;;;;;;4231103;28;20186;-70
2022/11/10 00:25:11;;;;;;;1.97;1.00;;;8.90;99.90;;;;;;4231001;28;20674;-69
2022/11/10 00:27:13;;;;;;;1.80;1.03;;;8.80;99.90;;;;;;4231040;28;20177;-71
2022/11/10 00:29:14;;;;;;;2.17;1.20;;;8.80;99.90;;;;;;4231251;28;20214;-69
2022/11/10 00:31:15;;;;;;;2.23;1.10;;;8.70;99.90;;;;;;4230468;28;20192;-69
2022/11/10 00:33:15;;;;;;;1.80;1.03;;;8.70;99.90;;;;;;4231172;28;20676;-70
2022/11/10 00:35:16;;;;;;;3.43;1.40;;;8.70;99.90;;;;;;4231112;28;20189;-69
2022/11/10 00:37:17;;;;;;;5.80;1.50;;;8.80;99.90;;;;;;4231266;28;20583;-69
2022/11/10 00:39:18;;;;;;;2.27;1.60;;;8.70;99.90;;;;;;4231148;28;20198;-69
2022/11/10 00:41:19;;;;;;;2.10;1.07;;;8.50;99.90;;;;;;4230594;28;20520;-71
2022/11/10 00:43:20;;;;;;;6.53;1.37;;;8.60;99.90;;;;;;4230912;28;20776;-70
2022/11/10 00:45:20;;;;;;;2.43;1.40;;;8.70;99.90;;;;;;4230963;28;20185;-71
2022/11/10 00:47:21;;;;;;;2.87;1.20;;;8.80;99.90;;;;;;4231269;28;20189;-70
2022/11/10 00:49:21;;;;;;;4.40;1.33;;;8.90;99.90;;;;;;4231165;28;20717;-70
2022/11/10 00:51:28;;;;;;;3.83;1.17;;;9.00;99.90;;;;;;4230376;28;20546;-72
2022/11/10 00:53:28;;;;;;;2.37;1.20;;;9.10;99.90;;;;;;4230707;28;20208;-70
2022/11/10 00:55:29;;;;;;;5.10;1.60;;;9.10;99.90;;;;;;4230635;28;20235;-69
2022/11/10 00:57:30;;;;;;;1.63;1.50;;;9.10;99.90;;;;;;4230935;28;20193;-69
2022/11/10 00:59:30;;;;;;;4.70;1.97;;;9.10;99.90;;;;;;4230739;28;20201;-69
2022/11/10 01:01:31;;;;;;;3.80;1.40;;;9.00;99.90;;;;;;4228880;28;20200;-69
2022/11/10 01:03:32;;;;;;;2.20;1.37;;;9.10;99.90;;;;;;4230663;28;20242;-70
2022/11/10 01:05:37;;;;;;;2.93;1.57;;;9.00;99.90;;;;;;4230677;28;20213;-69
2022/11/10 01:07:37;;;;;;;4.27;1.40;;;9.00;99.90;;;;;;4229157;28;20182;-69
2022/11/10 01:09:38;;;;;;;3.03;1.40;;;9.10;99.90;;;;;;4234173;28;20221;-69
2022/11/10 01:11:40;;;;;;;4.10;1.50;;;9.10;99.90;;;;;;4236473;28;20722;-70
2022/11/10 01:13:42;;;;;;;5.70;1.23;;;9.10;99.90;;;;;;4231100;28;20218;-70
2022/11/10 01:15:43;;;;;;;3.97;1.70;;;9.00;99.90;;;;;;4227276;28;20196;-70
2022/11/10 01:17:44;;;;;;;3.30;1.53;;;9.00;99.90;;;;;;4222456;28;20186;-68
2022/11/10 01:19:44;;;;;;;2.80;1.50;;;9.00;99.90;;;;;;4230501;28;20225;-70
2022/11/10 01:21:45;;;;;;;3.77;1.40;;;9.00;99.90;;;;;;4229771;28;20711;-69
2022/11/10 01:23:46;;;;;;;5.53;1.90;;;9.10;99.90;;;;;;4230399;28;20562;-70
2022/11/10 01:25:47;;;;;;;3.83;1.30;;;9.00;99.90;;;;;;4230628;28;20186;-68
2022/11/10 01:27:49;;;;;;;4.40;1.40;;;8.90;99.90;;;;;;4230383;27;20189;-69
2022/11/10 01:29:50;;;;;;;5.07;1.57;;;8.90;99.90;;;;;;4230256;28;20198;-70
2022/11/10 01:31:50;;;;;;;2.10;1.47;;;8.90;99.90;;;;;;4229781;28;20937;-70
2022/11/10 01:33:51;;;;;;;5.90;1.50;;;8.90;99.90;;;;;;4230166;28;20273;-69
2022/11/10 01:35:52;;;;;;;7.80;1.53;;;8.90;99.90;;;;;;4230115;28;20636;-69
2022/11/10 01:37:52;;;;;;;6.33;1.70;;;8.70;99.90;;;;;;4230357;28;20556;-71
2022/11/10 01:39:53;;;;;;;5.03;1.30;;;8.70;99.90;;;;;;4229994;28;20208;-69
2022/11/10 01:41:54;;;;;;;5.03;1.63;;;8.50;99.90;;;;;;4228926;28;20211;-68
2022/11/10 01:44:21;;;;;;;5.07;1.70;;;8.60;99.90;;;;;;4229824;28;20588;-68
2022/11/10 01:46:22;;;;;;;3.43;2.00;;;8.60;99.90;;;;;;4230099;28;20661;-68
2022/11/10 01:48:40;;;;;;;8.40;2.70;;;8.60;99.90;;;;;;4230126;28;20185;-69
2022/11/10 01:50:42;;;;;;;6.33;2.40;;;8.60;99.90;;;;;;4228382;28;20672;-68
2022/11/10 01:52:46;;;;;;;7.10;2.63;;;8.60;99.90;;;;;;4229840;28;20185;-68
2022/11/10 01:54:48;;;;;;;6.13;2.20;;;8.50;99.90;;;;;;4229944;28;20533;-68
2022/11/10 01:56:53;;;;;;;7.13;2.00;;;8.50;99.90;;;;;;4229889;28;20676;-69
2022/11/10 01:58:59;;;;;;;5.37;1.77;;;8.60;99.90;;;;;;4229625;28;20261;-69
2022/11/10 02:01:00;;;;;;;4.97;2.00;;;8.60;99.90;;;;;;4228056;28;20593;-68
2022/11/10 02:03:25;;;;;;;6.77;2.60;;;8.30;99.90;;;;;;4229740;28;20246;-68
2022/11/10 02:05:27;;;;;;;2.63;1.30;;;8.30;99.90;;;;;;4229618;28;20269;-68
2022/11/10 02:07:28;;;;;;;5.17;2.00;;;8.40;99.90;;;;;;4229704;28;20193;-68
2022/11/10 02:09:29;;;;;;;6.40;3.17;;;8.40;99.90;;;;;;4229837;28;20680;-68
2022/11/10 02:11:31;;;;;;;8.23;3.47;;;8.40;99.90;;;;;;4228586;28;20189;-68
2022/11/10 02:13:31;;;;;;;12.27;3.43;;;8.30;99.90;;;;;;4229438;28;20340;-68
2022/11/10 02:15:32;;;;;;;6.47;3.60;;;8.20;99.90;;;;;;4229402;28;20179;-68
2022/11/10 02:17:33;;;;;;;11.43;3.20;;;8.20;99.90;;;;;;4229460;28;20186;-69
2022/11/10 02:19:40;;;;;;;9.03;3.67;;;8.20;99.90;;;;;;4228544;28;20234;-68
2022/11/10 02:21:41;;;;;;;6.93;3.07;;;8.20;99.90;;;;;;4227515;28;20202;-68
2022/11/10 02:23:46;;;;;;;6.27;3.30;;;8.20;99.90;;;;;;4229360;28;20194;-68
2022/11/10 02:25:46;;;;;;;8.53;3.50;;;8.30;99.90;;;;;;4229292;28;20187;-68
2022/11/10 02:27:47;;;;;;;7.40;3.10;;;8.20;99.90;;;;;;4229206;28;20269;-67
2022/11/10 02:29:48;;;;;;;7.53;3.00;;;8.20;99.90;;;;;;4229310;28;20203;-68
2022/11/10 02:31:49;;;;;;;4.77;2.60;;;8.20;99.90;;;;;;4228885;28;20210;-68
2022/11/10 02:33:49;;;;;;;4.07;2.50;;;8.20;99.90;;;;;;4228808;28;20630;-68
2022/11/10 02:35:50;;;;;;;9.77;2.70;;;8.30;99.90;;;;;;4229277;28;20183;-68
2022/11/10 02:37:51;;;;;;;10.20;2.90;;;8.40;99.90;;;;;;4227857;28;20269;-68
2022/11/10 02:39:51;;;;;;;7.57;2.67;;;8.40;99.90;;;;;;4229151;28;20234;-68
2022/11/10 02:41:52;;;;;;;7.93;2.67;;;8.30;99.90;;;;;;4228666;28;20185;-68
2022/11/10 02:43:55;;;;;;;4.03;2.40;;;8.40;99.90;;;;;;4229132;28;20671;-68
2022/11/10 02:45:55;;;;;;;6.13;2.60;;;8.30;99.90;;;;;;4227941;28;20191;-71
2022/11/10 02:47:56;;;;;;;7.93;2.90;;;8.30;99.90;;;;;;4229063;28;20186;-69
2022/11/10 02:49:57;;;;;;;7.00;2.10;;;8.30;99.90;;;;;;4228930;28;20279;-69
2022/11/10 02:51:58;;;;;;;9.77;2.67;;;8.40;99.90;;;;;;4228372;28;20178;-69
2022/11/10 02:53:58;;;;;;;4.50;2.00;;;8.40;99.90;;;;;;4228175;28;20692;-69
2022/11/10 02:55:59;;;;;;;5.90;2.87;;;8.50;99.90;;;;;;4228893;28;20195;-69
2022/11/10 02:58:00;;;;;;;4.67;2.57;;;8.50;99.90;;;;;;4228955;28;20174;-68
2022/11/10 03:00:00;;;;;;;6.23;2.27;;;8.50;99.90;;;;;;4228536;28;20196;-69
2022/11/10 03:02:01;;;;;;;3.07;1.77;;;8.40;99.90;;;;;;4228266;28;20298;-69
2022/11/10 03:04:02;;;;;;;5.07;2.17;;;8.50;99.90;;;;;;4227401;28;20189;-69
2022/11/10 03:06:03;;;;;;;6.27;2.60;;;8.50;99.90;;;;;;4229009;28;20244;-69
2022/11/10 03:08:03;;;;;;;4.97;2.40;;;8.50;99.90;;;;;;4229329;28;20239;-69
2022/11/10 03:10:06;;;;;;;6.00;2.37;;;8.50;99.90;;;;;;4229993;28;20212;-68
2022/11/10 03:12:06;;;;;;;4.20;2.10;;;8.50;99.90;;;;;;4239884;28;20182;-69
2022/11/10 03:14:07;;;;;;;5.23;1.73;;;8.50;99.90;;;;;;4233332;28;20583;-69
2022/11/10 03:16:08;;;;;;;3.43;1.80;;;8.60;99.90;;;;;;4229973;28;20181;-68
2022/11/10 03:18:08;;;;;;;10.87;2.47;;;8.60;99.90;;;;;;4229112;28;20189;-69
2022/11/10 03:20:09;;;;;;;6.53;2.23;;;8.50;99.90;;;;;;4223979;28;20209;-67
2022/11/10 03:22:10;;;;;;;5.43;2.23;;;8.40;99.90;;;;;;4210838;28;20181;-68
2022/11/10 03:24:11;;;;;;;2.83;1.90;;;8.40;99.90;;;;;;4212201;28;20628;-68
2022/11/10 03:26:11;;;;;;;2.17;1.70;;;8.40;99.90;;;;;;4210888;28;20268;-69
2022/11/10 03:28:12;;;;;;;4.70;1.90;;;8.50;99.90;;;;;;4212182;28;20179;-69
2022/11/10 03:30:13;;;;;;;3.77;1.83;;;8.50;99.90;;;;;;4210625;28;20234;-69
2022/11/10 03:32:14;;;;;;;5.33;2.60;;;8.50;99.90;;;;;;4211230;28;20242;-69
2022/11/10 03:34:14;;;;;;;6.83;3.10;;;8.30;99.90;;;;;;4228460;28;20206;-68
2022/11/10 03:36:15;;;;;;;3.80;2.90;;;8.20;99.90;;;;;;4228975;28;20190;-69
2022/11/10 03:38:16;;;;;;;6.67;3.17;;;8.20;99.90;;;;;;4228986;28;20180;-69
2022/11/10 03:40:17;;;;;;;6.33;3.40;;;8.10;99.90;;;;;;4228053;28;20201;-69
2022/11/10 03:42:17;;;;;;;4.73;3.10;;;8.00;99.90;;;;;;4227759;28;20267;-69
2022/11/10 03:44:18;;;;;;;6.17;2.97;;;7.90;99.90;;;;;;4228908;28;20193;-69
2022/11/10 03:46:19;;;;;;;2.67;2.00;;;7.80;99.90;;;;;;4228807;28;20190;-69
2022/11/10 03:48:19;;;;;;;7.63;2.60;;;7.80;99.90;;;;;;4227116;28;20194;-68
2022/11/10 03:50:20;;;;;;;6.67;3.83;;;7.80;99.90;;;;;;4227850;28;20263;-69
2022/11/10 03:52:21;;;;;;;6.90;2.17;;;7.70;99.90;;;;;;4228764;28;20210;-68
2022/11/10 03:54:22;;;;;;;8.07;3.20;;;7.70;99.90;;;;;;4229894;28;20279;-69
2022/11/10 03:56:22;;;;;;;5.83;2.80;;;7.50;99.90;;;;;;4237164;28;20746;-70
2022/11/10 03:58:23;;;;;;;6.30;2.97;;;7.60;99.90;;;;;;4230050;28;20514;-69
2022/11/10 04:00:24;;;;;;;5.40;3.33;;;7.60;99.90;;;;;;4228488;28;20604;-69
2022/11/10 04:02:24;;;;;;;10.47;3.57;;;7.50;99.90;;;;;;4228741;28;20180;-70
2022/11/10 04:09:04;;;;;;;6.33;3.80;;;7.30;99.90;;;;;;4231752;28;20418;-68
2022/11/10 04:11:05;;;;;;;8.07;4.27;;;7.30;99.90;;;;;;4246761;27;20429;-68
2022/11/10 04:15:43;;;;;;;75.37;8.67;;;7.20;99.90;;;;;;4231585;28;20189;-69
2022/11/10 04:17:52;;;;;;;44.17;5.30;;;7.30;99.90;;;;;;4231714;28;20419;-68
2022/11/10 04:19:53;;;;;;;234.97;18.53;;;7.30;99.90;;;;;;4231347;28;20448;-68
2022/11/10 04:21:54;;;;;;;113.33;14.03;;;7.30;99.90;;;;;;4231003;28;20479;-69
2022/11/10 04:23:54;;;;;;;124.77;12.40;;;7.30;99.90;;;;;;4246834;27;20759;-70
2022/11/10 04:28:27;;;;;;;29.60;5.27;;;7.20;99.90;;;;;;4231474;28;20220;-69
2022/11/10 04:30:28;;;;;;;42.23;5.40;;;7.30;99.90;;;;;;4245989;27;20574;-70
2022/11/10 04:32:29;;;;;;;28.53;5.63;;;7.30;99.90;;;;;;4231232;28;20179;-70
2022/11/10 04:34:29;;;;;;;24.47;4.83;;;7.30;99.90;;;;;;4231038;28;20210;-70
2022/11/10 04:36:33;;;;;;;36.37;6.13;;;7.30;99.90;;;;;;4231116;28;20692;-70
2022/11/10 04:38:34;;;;;;;100.77;9.20;;;7.30;99.90;;;;;;4230341;28;20775;-69
2022/11/10 04:40:35;;;;;;;54.23;6.57;;;7.30;99.90;;;;;;4230671;28;20958;-70
2022/11/10 04:42:38;;;;;;;40.30;6.83;;;7.30;99.90;;;;;;4246939;27;20534;-69
2022/11/10 04:44:39;;;;;;;8.97;3.77;;;7.20;99.90;;;;;;4230986;28;20625;-70
2022/11/10 04:46:41;;;;;;;20.53;5.67;;;7.20;99.90;;;;;;4230995;28;20434;-69
2022/11/10 04:48:42;;;;;;;7.90;4.07;;;7.20;99.90;;;;;;4230922;28;20229;-69
2022/11/10 04:50:42;;;;;;;76.47;8.23;;;7.20;99.90;;;;;;4230322;28;20444;-70
2022/11/10 04:52:43;;;;;;;53.13;7.80;;;7.10;99.90;;;;;;4230879;28;20592;-69
2022/11/10 04:54:44;;;;;;;112.53;12.23;;;7.10;99.90;;;;;;4230876;28;20186;-70
2022/11/10 04:56:44;;;;;;;64.23;10.00;;;7.20;99.90;;;;;;4230915;28;20666;-69
2022/11/10 04:58:45;;;;;;;53.50;8.13;;;7.10;99.90;;;;;;4231026;28;20214;-70
2022/11/10 05:00:46;;;;;;;36.30;7.73;;;7.10;99.90;;;;;;4230483;28;20675;-70
2022/11/10 05:02:47;;;;;;;118.90;9.83;;;7.10;99.90;;;;;;4230074;28;20511;-69
2022/11/10 05:04:47;;;;;;;112.97;11.93;;;7.00;99.90;;;;;;4230501;28;20640;-69
2022/11/10 05:06:48;;;;;;;79.53;7.53;;;6.90;99.90;;;;;;4230366;28;20276;-69
2022/11/10 05:08:49;;;;;;;114.23;10.97;;;7.00;99.90;;;;;;4230229;28;20179;-69
2022/11/10 05:10:50;;;;;;;32.57;5.87;;;6.80;99.90;;;;;;4229785;28;20257;-69
2022/11/10 05:12:55;;;;;;;86.27;10.50;;;6.80;99.90;;;;;;4234526;28;20431;-69
2022/11/10 05:14:55;;;;;;;79.47;9.77;;;6.80;99.90;;;;;;4240222;28;20184;-70
2022/11/10 05:16:56;;;;;;;217.30;14.43;;;6.70;99.90;;;;;;4230222;28;20998;-70
2022/11/10 05:18:57;;;;;;;77.67;7.83;;;6.60;99.90;;;;;;4246766;27;20268;-69
2022/11/10 05:20:57;;;;;;;43.03;7.53;;;6.60;99.90;;;;;;4230340;28;20185;-69
2022/11/10 05:25:17;;;;;;;144.13;13.43;;;6.70;99.90;;;;;;4230259;28;20594;-69
2022/11/10 05:27:17;;;;;;;61.10;10.87;;;6.50;99.90;;;;;;4230316;28;20424;-69
2022/11/10 05:29:18;;;;;;;26.33;7.60;;;6.50;99.90;;;;;;4230152;28;20241;-70
2022/11/10 05:31:19;;;;;;;13.30;5.20;;;6.50;99.90;;;;;;4229526;28;20269;-70
2022/11/10 05:33:19;;;;;;;4.20;3.27;;;6.50;99.90;;;;;;4230281;28;20289;-69
2022/11/10 05:35:20;;;;;;;6.57;4.27;;;6.50;99.90;;;;;;4230286;28;20308;-70
2022/11/10 05:37:21;;;;;;;5.17;3.87;;;6.60;99.90;;;;;;4230159;28;20182;-70
2022/11/10 05:39:22;;;;;;;28.87;9.13;;;6.60;99.90;;;;;;4230077;28;20201;-69
2022/11/10 05:41:22;;;;;;;19.80;8.00;;;6.50;99.90;;;;;;4228495;28;20210;-69
2022/11/10 05:43:24;;;;;;;16.20;7.60;;;6.50;99.90;;;;;;4228450;28;20202;-69
2022/11/10 05:45:27;;;;;;;11.43;6.47;;;6.40;99.90;;;;;;4225080;28;20216;-70
2022/11/10 05:47:27;;;;;;;12.73;5.87;;;6.40;99.90;;;;;;4242399;27;20487;-69
2022/11/10 05:49:28;;;;;;;28.20;9.37;;;6.30;99.90;;;;;;4246709;27;20447;-68
2022/11/10 05:51:29;;;;;;;11.20;5.20;;;6.40;99.90;;;;;;4245862;27;20656;-69
2022/11/10 05:53:29;;;;;;;11.37;5.27;;;6.30;99.90;;;;;;4246568;27;20260;-69
2022/11/10 05:55:30;;;;;;;6.07;3.83;;;6.20;99.90;;;;;;4246643;27;20271;-69
2022/11/10 05:57:32;;;;;;;3.87;2.77;;;6.00;99.90;;;;;;4246585;27;20682;-70
2022/11/10 05:59:32;;;;;;;4.57;3.17;;;6.00;99.90;;;;;;4245308;27;20280;-70
2022/11/10 06:01:33;;;;;;;6.93;3.70;;;5.90;99.90;;;;;;4245745;27;20434;-70
2022/11/10 06:03:34;;;;;;;6.30;4.17;;;5.80;99.90;;;;;;4246445;27;20185;-69
2022/11/10 06:05:35;;;;;;;16.10;6.23;;;5.80;99.90;;;;;;4246241;27;20644;-70
2022/11/10 06:07:37;;;;;;;150.27;14.97;;;5.70;99.90;;;;;;4245059;27;20205;-70
2022/11/10 06:09:38;;;;;;;23.03;5.80;;;5.70;99.90;;;;;;4246482;27;20514;-70
2022/11/10 06:11:39;;;;;;;48.43;7.83;;;5.70;99.90;;;;;;4245597;27;20457;-70
2022/11/10 06:13:39;;;;;;;69.40;8.87;;;5.70;99.90;;;;;;4246037;27;20244;-70
2022/11/10 06:15:40;;;;;;;67.97;9.77;;;5.70;99.90;;;;;;4246197;27;20211;-69
2022/11/10 06:17:42;;;;;;;91.40;9.33;;;5.70;99.90;;;;;;4246073;27;20192;-69
2022/11/10 06:19:43;;;;;;;40.30;6.27;;;5.70;99.90;;;;;;4246413;27;20204;-70
2022/11/10 06:21:43;;;;;;;53.00;6.07;;;5.80;99.90;;;;;;4245531;27;20424;-69
2022/11/10 06:23:44;;;;;;;117.17;8.00;;;5.70;99.90;;;;;;4244713;27;20247;-69
2022/11/10 06:25:45;;;;;;;78.73;10.23;;;5.70;99.90;;;;;;4246360;27;20679;-70
2022/11/10 06:27:45;;;;;;;36.50;6.90;;;5.70;99.90;;;;;;4246143;27;20547;-69
2022/11/10 06:29:46;;;;;;;32.40;6.00;;;5.70;99.90;;;;;;4246448;27;20551;-70
2022/11/10 06:31:47;;;;;;;29.50;5.67;;;5.70;99.90;;;;;;4245755;27;20177;-70
2022/11/10 06:33:48;;;;;;;63.10;7.13;;;5.80;99.90;;;;;;4259927;27;20194;-69
2022/11/10 06:35:48;;;;;;;38.27;6.53;;;5.90;99.90;;;;;;4257085;27;20189;-69
2022/11/10 06:38:11;;;;;;;50.43;6.73;;;5.80;99.90;;;;;;4246418;27;20909;-70
2022/11/10 06:40:13;;;;;;;45.57;7.90;;;5.80;99.90;;;;;;4245295;27;20893;-70
2022/11/10 06:42:13;;;;;;;26.13;6.47;;;5.80;99.90;;;;;;4245779;27;20441;-69
2022/11/10 06:44:14;;;;;;;181.17;15.47;;;5.80;99.90;;;;;;4245833;27;20416;-69
2022/11/10 06:46:15;;;;;;;226.17;23.17;;;6.00;99.90;;;;;;4244516;27;20277;-69
2022/11/10 06:48:15;;;;;;;119.23;9.13;;;6.00;99.90;;;;;;4245811;27;20185;-69
2022/11/10 06:50:16;;;;;;;61.10;8.13;;;6.10;99.90;;;;;;4245230;27;20280;-70
2022/11/10 06:52:17;;;;;;;155.43;14.00;;;6.10;99.90;;;;;;4245897;27;20174;-69
2022/11/10 06:54:17;;;;;;;300.50;22.03;;;6.20;99.90;;;;;;4245976;27;20576;-69
2022/11/10 06:56:18;;;;;;;164.50;16.90;;;6.20;99.90;;;;;;4245583;27;20170;-69
2022/11/10 06:58:19;;;;;;;188.17;18.73;;;6.20;99.90;;;;;;4245733;27;20199;-70
2022/11/10 07:00:20;;;;;;;57.73;8.73;;;6.20;99.90;;;;;;4245349;27;20197;-70
2022/11/10 07:02:21;;;;;;;54.50;10.33;;;6.20;99.90;;;;;;4238520;27;20194;-70
2022/11/10 07:04:21;;;;;;;132.53;16.57;;;6.20;99.90;;;;;;4228701;28;20435;-70
2022/11/10 07:06:22;;;;;;;78.93;12.73;;;6.30;99.90;;;;;;4228508;28;20202;-69
2022/11/10 07:08:23;;;;;;;161.40;16.50;;;6.20;99.90;;;;;;4225654;28;20182;-69
2022/11/10 07:10:24;;;;;;;173.30;17.90;;;6.20;99.90;;;;;;4211383;28;20737;-69
2022/11/10 07:12:24;;;;;;;28.53;7.67;;;6.20;99.90;;;;;;4211767;28;20187;-69
2022/11/10 07:14:25;;;;;;;53.37;10.37;;;6.20;99.90;;;;;;4217695;28;20222;-69
2022/11/10 07:16:26;;;;;;;23.03;6.07;;;6.20;99.90;;;;;;4226795;28;20174;-69
2022/11/10 07:18:26;;;;;;;12.73;5.50;;;6.20;99.90;;;;;;4214630;28;20189;-70
2022/11/10 07:20:28;;;;;;;28.50;7.70;;;6.20;99.90;;;;;;4211317;28;20214;-69
2022/11/10 07:22:29;;;;;;;36.37;7.03;;;6.20;99.90;;;;;;4211732;28;20626;-70
2022/11/10 07:24:30;;;;;;;8.43;5.10;;;6.20;99.90;;;;;;4212023;28;20440;-69
2022/11/10 07:26:30;;;;;;;11.43;5.53;;;6.20;99.90;;;;;;4212080;28;20193;-69
2022/11/10 07:28:31;;;;;;;6.50;4.37;;;6.20;99.90;;;;;;4211912;28;20186;-70
2022/11/10 07:30:34;;;;;;;10.97;5.13;;;6.20;99.90;;;;;;4211703;28;20245;-69
2022/11/10 07:32:34;;;;;;;6.10;4.27;;;6.20;99.90;;;;;;4211631;28;20263;-70
2022/11/10 07:34:35;;;;;;;5.97;3.73;;;6.10;99.90;;;;;;4211845;28;20473;-69
2022/11/10 07:36:35;;;;;;;5.50;3.63;;;6.10;99.90;;;;;;4212297;28;20175;-70
2022/11/10 07:38:36;;;;;;;64.87;5.00;;;6.00;99.90;;;;;;4212131;28;20225;-68
2022/11/10 07:40:38;;;;;;;13.60;4.10;;;5.80;99.90;;;;;;4213709;28;20211;-69
2022/11/10 07:42:39;;;;;;;113.73;12.13;;;5.90;99.90;;;;;;4215205;28;20656;-69
2022/11/10 07:44:40;;;;;;;37.87;9.27;;;5.90;99.90;;;;;;4230585;28;20477;-69
2022/11/10 07:46:41;;;;;;;44.00;10.03;;;5.90;99.90;;;;;;4215034;28;20903;-69
2022/11/10 07:48:41;;;;;;;157.33;33.90;;;5.80;99.90;;;;;;4215205;28;20269;-69
2022/11/10 07:50:42;;;;;;;197.33;36.53;;;5.80;99.90;;;;;;4212757;28;20203;-68
2022/11/10 07:52:43;;;;;;;72.90;15.60;;;5.80;99.90;;;;;;4214737;28;20179;-69
2022/11/10 07:54:44;;;;;;;85.10;17.90;;;5.70;99.90;;;;;;4214625;28;20534;-69
2022/11/10 07:56:45;;;;;;;45.90;17.60;;;5.80;99.90;;;;;;4214610;28;20186;-70
2022/11/10 07:58:47;;;;;;;17.50;9.37;;;5.90;99.90;;;;;;4214802;28;20179;-69
2022/11/10 08:00:48;;;;;;;8.30;5.37;;;5.90;99.90;;;;;;4214019;28;20206;-69
2022/11/10 08:02:49;;;;;;;9.87;6.83;;;5.80;99.90;;;;;;4214375;28;20417;-69
2022/11/10 08:04:50;;;;;;;10.00;5.90;;;5.90;99.90;;;;;;4214359;28;20179;-70
2022/11/10 08:06:53;;;;;;;10.67;6.27;;;5.90;99.90;;;;;;4214460;28;20422;-70
2022/11/10 08:08:53;;;;;;;6.43;4.77;;;5.90;99.90;;;;;;4214346;28;20498;-69
2022/11/10 08:10:56;;;;;;;7.00;4.37;;;5.90;99.90;;;;;;4213665;28;20421;-69
2022/11/10 08:12:59;;;;;;;8.37;5.30;;;5.90;99.90;;;;;;4214427;28;20167;-69
2022/11/10 08:15:00;;;;;;;7.00;4.57;;;6.10;99.90;;;;;;4213140;28;20528;-69
2022/11/10 08:17:01;;;;;;;9.43;5.37;;;6.20;99.90;;;;;;4214335;28;20452;-69
2022/11/10 08:19:02;;;;;;;6.50;5.00;;;6.30;99.90;;;;;;4214241;28;20904;-70
2022/11/10 08:21:03;;;;;;;6.53;5.17;;;6.30;99.90;;;;;;4213738;28;20666;-70
2022/11/10 08:23:05;;;;;;;10.23;5.93;;;6.40;99.90;;;;;;4214231;28;20183;-68
2022/11/10 08:25:06;;;;;;;7.30;5.40;;;6.50;99.90;;;;;;4214104;28;20458;-69
2022/11/10 08:27:07;;;;;;;7.60;4.67;;;6.60;99.90;;;;;;4214121;28;20421;-68
2022/11/10 08:29:08;;;;;;;8.00;4.90;;;6.70;99.90;;;;;;4214354;28;20897;-69
2022/11/10 08:31:09;;;;;;;5.37;4.40;;;6.80;99.90;;;;;;4213347;28;20175;-69
2022/11/10 08:33:13;;;;;;;8.10;4.50;;;6.90;99.90;;;;;;4212779;28;20630;-69
2022/11/10 08:35:14;;;;;;;7.77;5.30;;;7.00;99.90;;;;;;4214132;28;20654;-69
2022/11/10 08:37:14;;;;;;;10.13;6.10;;;7.10;99.90;;;;;;4214187;28;20421;-69
2022/11/10 08:39:15;;;;;;;7.40;5.43;;;7.20;99.90;;;;;;4213959;28;20574;-69
2022/11/10 08:41:16;;;;;;;5.80;4.70;;;7.30;99.90;;;;;;4213270;28;20175;-69
2022/11/10 08:43:17;;;;;;;8.53;5.37;;;7.40;99.90;;;;;;4214276;28;20257;-69
2022/11/10 08:45:18;;;;;;;10.73;6.43;;;7.60;99.90;;;;;;4229432;28;20188;-69
2022/11/10 08:47:19;;;;;;;9.97;5.00;;;7.70;99.90;;;;;;4213892;28;20260;-68
2022/11/10 08:49:19;;;;;;;8.50;5.60;;;7.70;99.90;;;;;;4214729;28;20193;-69
2022/11/10 08:51:21;;;;;;;8.77;5.63;;;7.70;99.90;;;;;;4211747;28;20270;-69
2022/11/10 08:53:23;;;;;;;8.10;5.77;;;7.90;99.90;;;;;;4213580;28;20206;-69
2022/11/10 08:55:23;;;;;;;6.17;4.53;;;8.20;99.90;;;;;;4213965;28;20175;-69
2022/11/10 08:57:24;;;;;;;7.43;3.27;;;8.30;99.90;;;;;;4242551;27;20242;-68
2022/11/10 08:59:25;;;;;;;4.90;3.20;;;8.50;99.90;;;;;;4230152;28;20210;-69
2022/11/10 09:01:25;;;;;;;7.57;3.30;;;8.70;99.90;;;;;;4228299;28;20725;-69
2022/11/10 09:03:26;;;;;;;20.90;5.73;;;8.90;99.90;;;;;;4228910;28;20182;-69
2022/11/10 09:05:27;;;;;;;4.20;3.20;;;8.80;99.90;;;;;;4230253;28;20300;-69
2022/11/10 09:07:27;;;;;;;4.53;2.90;;;8.80;99.90;;;;;;4230199;28;20186;-70
2022/11/10 09:09:28;;;;;;;6.23;2.33;;;9.00;99.90;;;;;;4230061;28;20198;-68
2022/11/10 09:11:29;;;;;;;3.10;1.90;;;9.30;99.90;;;;;;4232387;28;20186;-69
2022/11/10 09:13:30;;;;;;;3.60;2.17;;;9.60;99.90;;;;;;4240133;28;20206;-70
2022/11/10 09:15:32;;;;;;;2.43;1.63;;;9.80;99.90;;;;;;4215360;28;20171;-70
2022/11/10 09:17:33;;;;;;;2.30;1.47;;;9.90;99.90;;;;;;4223447;28;20254;-69
2022/11/10 09:19:34;;;;;;;3.73;1.70;;;10.30;99.90;;;;;;4217892;28;20195;-70
2022/11/10 09:21:34;;;;;;;3.43;1.43;;;10.40;99.90;;;;;;4213258;28;20179;-68
2022/11/10 09:23:35;;;;;;;3.43;1.20;;;10.80;99.90;;;;;;4213382;28;20198;-70
2022/11/10 09:25:37;;;;;;;2.73;1.10;;;11.20;99.90;;;;;;4213474;28;20206;-69
2022/11/10 09:27:38;;;;;;;1.57;1.00;;;11.50;99.90;;;;;;4211960;28;20187;-69
2022/11/10 09:29:38;;;;;;;2.30;1.03;;;11.90;99.90;;;;;;4213317;28;20203;-70
2022/11/10 09:31:40;;;;;;;4.83;1.00;;;12.50;99.90;;;;;;4212355;28;20187;-69
2022/11/10 09:33:41;;;;;;;3.53;1.00;;;13.10;99.90;;;;;;4211664;28;20616;-70
2022/11/10 09:35:42;;;;;;;2.50;1.07;;;13.80;99.90;;;;;;4212940;28;20210;-69
2022/11/10 09:37:42;;;;;;;2.20;1.30;;;14.40;99.90;;;;;;4211917;28;20179;-69
2022/11/10 09:39:44;;;;;;;3.30;1.47;;;14.80;99.90;;;;;;4213187;28;20195;-69
2022/11/10 09:41:44;;;;;;;4.50;1.90;;;15.20;98.40;;;;;;4210938;28;20208;-69
2022/11/10 09:44:10;;;;;;;5.00;1.50;;;15.30;96.10;;;;;;4213119;28;20215;-69
2022/11/10 09:46:22;;;;;;;3.80;1.57;;;15.10;94.80;;;;;;4211799;28;20182;-69
2022/11/10 09:48:42;;;;;;;3.37;1.87;;;15.20;95.20;;;;;;4211348;28;20194;-70
2022/11/10 09:50:48;;;;;;;4.97;1.73;;;15.50;93.80;;;;;;4211055;28;20252;-68
2022/11/10 09:52:51;;;;;;;3.73;1.53;;;15.50;91.80;;;;;;4212832;28;20545;-69
2022/11/10 09:55:17;;;;;;;2.77;1.20;;;15.10;92.70;;;;;;4212866;28;20266;-69
2022/11/10 09:57:23;;;;;;;2.77;1.20;;;15.50;85.20;;;;;;4211905;28;21082;-70
2022/11/10 09:59:28;;;;;;;3.10;1.40;;;15.30;86.40;;;;;;4211503;28;20202;-70
2022/11/10 10:01:50;;;;;;;2.40;1.13;;;15.50;77.20;;;;;;4210664;28;20183;-69
2022/11/10 10:04:41;;;;;;;2.90;1.00;;;15.80;85.30;;;;;;4210966;28;20257;-69
2022/11/10 10:07:01;;;;;;;4.63;1.00;;;16.20;81.90;;;;;;4210060;28;20288;-69
2022/11/10 10:09:34;;;;;;;1.43;0.93;;;16.00;79.80;;;;;;4212407;28;20187;-69
2022/11/10 10:12:07;;;;;;;1.47;1.00;;;16.50;82.10;;;;;;4210752;28;20187;-69
2022/11/10 10:14:41;;;;;;;2.17;1.20;;;17.10;79.80;;;;;;4212876;28;20210;-70
2022/11/10 10:17:07;;;;;;;2.07;1.23;;;17.30;79.40;;;;;;4212615;28;20668;-70
2022/11/10 10:19:32;;;;;;;2.63;1.10;;;17.60;77.70;;;;;;4212428;28;20202;-69
2022/11/10 10:21:48;;;;;;;1.80;1.10;;;18.40;70.90;;;;;;4211935;28;20695;-70
2022/11/10 10:23:55;;;;;;;2.87;1.13;;;18.60;66.00;;;;;;4212791;28;20272;-70
2022/11/10 10:25:56;;;;;;;1.97;1.10;;;17.90;66.30;;;;;;4212311;28;20183;-69
2022/11/10 10:28:18;;;;;;;1.63;1.33;;;17.20;66.50;;;;;;4211078;28;20643;-69
2022/11/10 10:30:20;;;;;;;2.53;1.07;;;17.00;72.30;;;;;;4211603;28;20243;-69
2022/11/10 10:32:21;;;;;;;1.97;1.20;;;17.20;74.60;;;;;;4212295;28;20262;-69
2022/11/10 10:34:29;;;;;;;4.50;1.27;;;16.80;75.40;;;;;;4212372;28;20297;-69
2022/11/10 10:36:30;;;;;;;2.37;1.20;;;16.70;77.10;;;;;;4211140;28;20182;-70
2022/11/10 10:38:37;;;;;;;2.70;1.00;;;16.70;80.30;;;;;;4212624;28;20182;-70
2022/11/10 10:40:38;;;;;;;1.53;1.10;;;16.80;79.70;;;;;;4212207;28;20218;-70
2022/11/10 10:42:39;;;;;;;1.77;1.20;;;17.40;74.10;;;;;;4211325;28;20170;-70
2022/11/10 10:44:40;;;;;;;1.70;1.00;;;17.70;75.20;;;;;;4212285;28;20175;-70
2022/11/10 10:47:01;;;;;;;3.10;1.40;;;18.40;66.90;;;;;;4210972;28;20241;-70
2022/11/10 10:49:27;;;;;;;3.03;1.13;;;18.50;66.50;;;;;;4211803;28;20175;-70
2022/11/10 10:51:30;;;;;;;1.77;1.13;;;19.80;58.00;;;;;;4209944;28;20266;-70
2022/11/10 10:53:30;;;;;;;2.47;1.40;;;19.70;54.50;;;;;;4212049;28;20198;-70
2022/11/10 10:55:33;;;;;;;1.70;1.30;;;18.70;61.30;;;;;;4211830;28;20657;-69